Ventura — ZCDT2 — position and weather

sailwx.info

Track history (hours):
 
Tides and Currents Weather Stations Pressure Air Temp Water Temp Dewpoint Dewpoint Depression Visibility Wind Speed Wind Dir Waves Ship Positions

Ventura

Last reported at 2015-Sep-03 17:29 UTC. Time now 2015-Sep-03 19:14 UTC.
Position N 38°20' W 000°22'.

Length 288 m; draft 8.6 m.

Type: Passenger vessel. MMSI: 310562000.

Date/timePositionNaut miles runAvg speedWind from/ knotsBaromVisibWave heightAir tempDewpointWater temp
2015-Sep-03 17:29N 38°20' W 000°22'7 0.9
2015-Sep-03 09:33N 38°13' W 000°22'2019.7
2015-Sep-03 08:34N 37°53' W 000°25'2019.8
2015-Sep-03 07:33N 37°34' W 000°30'1919.5
2015-Sep-03 06:33N 37°21' W 000°48'2020.3
2015-Sep-03 05:33N 37°06' W 001°06'2020.3
2015-Sep-03 04:33N 36°53' W 001°25'1424.6
2015-Sep-03 04:00N 36°42' W 001°36'715.5 260 / 201012.3 5.4 0.523.819.026.0
2015-Sep-03 03:33N 36°39' W 001°43'2020.4
2015-Sep-03 02:33N 36°27' W 002°04'2120.2
2015-Sep-03 01:32N 36°21' W 002°28'24821.5
2015-Sep-02 14:00N 36°12' W 007°36'5912.9 270 / 81017.310.8 1.020.016.721.8
2015-Sep-02 09:25N 36°27' W 008°47'7518.5
2015-Sep-02 05:23N 37°27' W 009°43'2020.1
2015-Sep-02 04:23N 37°46' W 009°50'1720.3
2015-Sep-02 03:33N 38°03' W 009°54'2020.5
2015-Sep-02 02:33N 38°23' W 010°00'2120.9
2015-Sep-02 01:33N 38°43' W 010°06'2020.2
2015-Sep-02 00:33N 39°03' W 010°02'2020.4
2015-Sep-01 23:34N 39°23' W 009°56'2120.4
2015-Sep-01 22:32N 39°43' W 009°48'1832.6
2015-Sep-01 22:00N 40°00' W 009°42'2416.3 340 / 241019.410.8 0.518.516.020.1
2015-Sep-01 20:33N 40°23' W 009°35'2020.5
2015-Sep-01 19:33N 40°43' W 009°28'42312.6
2015-Aug-31 10:00N 47°24' W 006°24'12517.9 350 / 251017.810.8 1.016.014.317.1
2015-Aug-31 03:00N 49°00' W 004°24'11620.0 350 / 251014.4 5.4 1.016.415.515.1
2015-Aug-30 21:13N 50°12' W 002°05'1115.2
2015-Aug-30 20:28N 50°17' W 001°49'1915.3
2015-Aug-30 19:14N 50°26' W 001°23'1015.5
2015-Aug-30 18:34N 50°31' W 001°08'1313.2
2015-Aug-30 17:33N 50°42' W 000°59'1313.3
2015-Aug-30 16:34N 50°49' W 001°18'6 6.0
2015-Aug-30 15:30N 50°54' W 001°24'0 0.0
2015-Aug-30 14:24N 50°54' W 001°24'0 0.0
2015-Aug-30 13:33N 50°54' W 001°24'0 0.0
2015-Aug-30 12:33N 50°54' W 001°24'0 0.0
2015-Aug-30 10:12N 50°54' W 001°24'0 0.0
2015-Aug-30 09:33N 50°54' W 001°24'0 0.0
2015-Aug-30 08:27N 50°54' W 001°24'0 0.0
2015-Aug-30 07:31N 50°54' W 001°24'0 0.0
2015-Aug-30 06:33N 50°54' W 001°24'0 0.1
2015-Aug-30 05:33N 50°53' W 001°24'7 7.0
2015-Aug-30 04:33N 50°47' W 001°19'1413.7
2015-Aug-30 03:33N 50°42' W 000°59'1010.4
2015-Aug-30 02:33N 50°32' W 001°04'10 9.9
2015-Aug-30 01:33N 50°29' W 001°18'10 9.6
2015-Aug-30 00:33N 50°25' W 001°32'1010.1
2015-Aug-29 23:33N 50°21' W 001°46'2211.0
2015-Aug-29 21:32N 50°07' W 002°13'14315.8
2015-Aug-29 12:27N 48°42' W 005°10'  
2015-Aug-26 23:32N 39°37' W 009°45'1312.9
2015-Aug-26 22:33N 39°24' W 009°44'1313.3
2015-Aug-26 21:33N 39°11' W 009°43'1313.3
2015-Aug-26 20:33N 38°57' W 009°43'1313.1
2015-Aug-26 19:33N 38°44' W 009°42'1110.8
2015-Aug-26 18:33N 38°36' W 009°33'1312.6
2015-Aug-26 17:33N 38°40' W 009°18'9 1.0
2015-Aug-26 08:33N 38°43' W 009°07'0 0.0
2015-Aug-26 07:33N 38°43' W 009°07'4 3.6
2015-Aug-26 06:33N 38°41' W 009°12'9 9.4
2015-Aug-26 05:34N 38°37' W 009°22'1514.9
2015-Aug-26 04:33N 38°38' W 009°42'1716.9
2015-Aug-26 03:34N 38°55' W 009°44'1716.9
2015-Aug-26 02:34N 39°12' W 009°45'1716.9
2015-Aug-26 01:33N 39°29' W 009°46'1716.8
2015-Aug-26 00:33N 39°46' W 009°48'2616.8
2015-Aug-25 23:00N 40°12' W 009°48'13817.3 210 / 101018.910.8 0.520.018.419.7
2015-Aug-25 15:00N 42°30' W 010°00'5413.5 220 / 301018.1 5.4 2.520.018.418.4
2015-Aug-25 11:00N 43°24' W 009°54'14015.6 210 / 241017.310.8 1.520.018.4
2015-Aug-25 02:00N 45°24' W 008°12'   230 / 341011.6 5.4 3.518.517.718.4
Track history (hours):
 
Tides and Currents Weather Stations Pressure Air Temp Water Temp Dewpoint Dewpoint Depression Visibility Wind Speed Wind Dir Waves Ship Positions

Ventura

Last reported at 2015-Sep-03 17:29 UTC. Time now 2015-Sep-03 19:14 UTC.
Position N 38°20' W 000°22'.

Length 288 m; draft 8.6 m.

Type: Passenger vessel. MMSI: 310562000.

Date/timePositionNaut miles runAvg speedWind from/ knotsBaromVisibWave heightAir tempDewpointWater temp
2015-Sep-03 17:29N 38°20' W 000°22'7 0.9
2015-Sep-03 09:33N 38°13' W 000°22'2019.7
2015-Sep-03 08:34N 37°53' W 000°25'2019.8
2015-Sep-03 07:33N 37°34' W 000°30'1919.5
2015-Sep-03 06:33N 37°21' W 000°48'2020.3
2015-Sep-03 05:33N 37°06' W 001°06'2020.3
2015-Sep-03 04:33N 36°53' W 001°25'1424.6
2015-Sep-03 04:00N 36°42' W 001°36'715.5 260 / 201012.3 5.4 0.523.819.026.0
2015-Sep-03 03:33N 36°39' W 001°43'2020.4
2015-Sep-03 02:33N 36°27' W 002°04'2120.2
2015-Sep-03 01:32N 36°21' W 002°28'24821.5
2015-Sep-02 14:00N 36°12' W 007°36'5912.9 270 / 81017.310.8 1.020.016.721.8
2015-Sep-02 09:25N 36°27' W 008°47'7518.5
2015-Sep-02 05:23N 37°27' W 009°43'2020.1
2015-Sep-02 04:23N 37°46' W 009°50'1720.3
2015-Sep-02 03:33N 38°03' W 009°54'2020.5
2015-Sep-02 02:33N 38°23' W 010°00'2120.9
2015-Sep-02 01:33N 38°43' W 010°06'2020.2
2015-Sep-02 00:33N 39°03' W 010°02'2020.4
2015-Sep-01 23:34N 39°23' W 009°56'2120.4
2015-Sep-01 22:32N 39°43' W 009°48'1832.6
2015-Sep-01 22:00N 40°00' W 009°42'2416.3 340 / 241019.410.8 0.518.516.020.1
2015-Sep-01 20:33N 40°23' W 009°35'2020.5
2015-Sep-01 19:33N 40°43' W 009°28'42312.6
2015-Aug-31 10:00N 47°24' W 006°24'12517.9 350 / 251017.810.8 1.016.014.317.1
2015-Aug-31 03:00N 49°00' W 004°24'11620.0 350 / 251014.4 5.4 1.016.415.515.1
2015-Aug-30 21:13N 50°12' W 002°05'1115.2
2015-Aug-30 20:28N 50°17' W 001°49'1915.3
2015-Aug-30 19:14N 50°26' W 001°23'1015.5
2015-Aug-30 18:34N 50°31' W 001°08'1313.2
2015-Aug-30 17:33N 50°42' W 000°59'1313.3
2015-Aug-30 16:34N 50°49' W 001°18'6 6.0
2015-Aug-30 15:30N 50°54' W 001°24'0 0.0
2015-Aug-30 14:24N 50°54' W 001°24'0 0.0
2015-Aug-30 13:33N 50°54' W 001°24'0 0.0
2015-Aug-30 12:33N 50°54' W 001°24'0 0.0
2015-Aug-30 10:12N 50°54' W 001°24'0 0.0
2015-Aug-30 09:33N 50°54' W 001°24'0 0.0
2015-Aug-30 08:27N 50°54' W 001°24'0 0.0
2015-Aug-30 07:31N 50°54' W 001°24'0 0.0
2015-Aug-30 06:33N 50°54' W 001°24'0 0.1
2015-Aug-30 05:33N 50°53' W 001°24'7 7.0
2015-Aug-30 04:33N 50°47' W 001°19'1413.7
2015-Aug-30 03:33N 50°42' W 000°59'1010.4
2015-Aug-30 02:33N 50°32' W 001°04'10 9.9
2015-Aug-30 01:33N 50°29' W 001°18'10 9.6
2015-Aug-30 00:33N 50°25' W 001°32'1010.1
2015-Aug-29 23:33N 50°21' W 001°46'2211.0
2015-Aug-29 21:32N 50°07' W 002°13'14315.8
2015-Aug-29 12:27N 48°42' W 005°10'  
2015-Aug-26 23:32N 39°37' W 009°45'1312.9
2015-Aug-26 22:33N 39°24' W 009°44'1313.3
2015-Aug-26 21:33N 39°11' W 009°43'1313.3
2015-Aug-26 20:33N 38°57' W 009°43'1313.1
2015-Aug-26 19:33N 38°44' W 009°42'1110.8
2015-Aug-26 18:33N 38°36' W 009°33'1312.6
2015-Aug-26 17:33N 38°40' W 009°18'9 1.0
2015-Aug-26 08:33N 38°43' W 009°07'0 0.0
2015-Aug-26 07:33N 38°43' W 009°07'4 3.6
2015-Aug-26 06:33N 38°41' W 009°12'9 9.4
2015-Aug-26 05:34N 38°37' W 009°22'1514.9
2015-Aug-26 04:33N 38°38' W 009°42'1716.9
2015-Aug-26 03:34N 38°55' W 009°44'1716.9
2015-Aug-26 02:34N 39°12' W 009°45'1716.9
2015-Aug-26 01:33N 39°29' W 009°46'1716.8
2015-Aug-26 00:33N 39°46' W 009°48'2616.8
2015-Aug-25 23:00N 40°12' W 009°48'13817.3 210 / 101018.910.8 0.520.018.419.7
2015-Aug-25 15:00N 42°30' W 010°00'5413.5 220 / 301018.1 5.4 2.520.018.418.4
2015-Aug-25 11:00N 43°24' W 009°54'14015.6 210 / 241017.310.8 1.520.018.4
2015-Aug-25 02:00N 45°24' W 008°12'   230 / 341011.6 5.4 3.518.517.718.4

Dump ship's entire track history